sensor_id;sensor_type;location;lat;lon;timestamp;pressure;altitude;pressure_sealevel;temperature;humidity
46408;BME280;32110;45.724;21.276;2023-03-11T00:02:09;98482.19;;;8.93;nan
46408;BME280;32110;45.724;21.276;2023-03-11T00:04:34;98474.31;;;8.93;nan
46408;BME280;32110;45.724;21.276;2023-03-11T00:07:00;98471.97;;;8.86;nan
46408;BME280;32110;45.724;21.276;2023-03-11T00:09:25;98490.06;;;8.93;nan
46408;BME280;32110;45.724;21.276;2023-03-11T00:11:51;98471.16;;;8.86;nan
46408;BME280;32110;45.724;21.276;2023-03-11T00:14:16;98489.03;;;8.94;nan
46408;BME280;32110;45.724;21.276;2023-03-11T00:16:41;98484.56;;;8.94;nan
46408;BME280;32110;45.724;21.276;2023-03-11T00:19:08;98486.16;;;8.96;nan
46408;BME280;32110;45.724;21.276;2023-03-11T00:21:34;98470.66;;;8.84;nan
46408;BME280;32110;45.724;21.276;2023-03-11T00:24:00;98481.16;;;8.94;nan
46408;BME280;32110;45.724;21.276;2023-03-11T00:26:27;98472.75;;;8.87;nan
46408;BME280;32110;45.724;21.276;2023-03-11T00:28:53;98480.09;;;8.95;nan
46408;BME280;32110;45.724;21.276;2023-03-11T00:31:20;98459.63;;;8.87;nan
46408;BME280;32110;45.724;21.276;2023-03-11T00:33:47;98474.59;;;8.97;nan
46408;BME280;32110;45.724;21.276;2023-03-11T00:36:22;98476.44;;;8.96;nan
46408;BME280;32110;45.724;21.276;2023-03-11T00:38:49;98481.16;;;8.94;nan
46408;BME280;32110;45.724;21.276;2023-03-11T00:41:15;98487.72;;;8.97;nan
46408;BME280;32110;45.724;21.276;2023-03-11T00:43:40;98475.91;;;8.89;nan
46408;BME280;32110;45.724;21.276;2023-03-11T00:46:06;98486.94;;;8.96;nan
46408;BME280;32110;45.724;21.276;2023-03-11T00:48:31;98484.81;;;8.93;nan
46408;BME280;32110;45.724;21.276;2023-03-11T00:50:56;98479.84;;;8.91;nan
46408;BME280;32110;45.724;21.276;2023-03-11T00:53:22;98470.38;;;8.90;nan
46408;BME280;32110;45.724;21.276;2023-03-11T00:55:47;98463.28;;;8.86;nan
46408;BME280;32110;45.724;21.276;2023-03-11T00:58:13;98461.72;;;8.90;nan
46408;BME280;32110;45.724;21.276;2023-03-11T01:00:38;98440.72;;;8.80;nan
46408;BME280;32110;45.724;21.276;2023-03-11T01:03:04;98435.47;;;8.80;nan
46408;BME280;32110;45.724;21.276;2023-03-11T01:05:31;98457.25;;;8.90;nan
46408;BME280;32110;45.724;21.276;2023-03-11T01:07:58;98445.97;;;8.90;nan
46408;BME280;32110;45.724;21.276;2023-03-11T01:10:24;98433.09;;;8.83;nan
46408;BME280;32110;45.724;21.276;2023-03-11T01:12:50;98383.50;;;8.51;nan
46408;BME280;32110;45.724;21.276;2023-03-11T01:15:25;98437.84;;;8.86;nan
46408;BME280;32110;45.724;21.276;2023-03-11T01:17:51;98441.50;;;8.85;nan
46408;BME280;32110;45.724;21.276;2023-03-11T01:20:17;98438.09;;;8.80;nan
46408;BME280;32110;45.724;21.276;2023-03-11T01:22:42;98434.41;;;8.81;nan
46408;BME280;32110;45.724;21.276;2023-03-11T01:25:13;98449.66;;;8.89;nan
46408;BME280;32110;45.724;21.276;2023-03-11T01:27:39;98447.81;;;8.89;nan
46408;BME280;32110;45.724;21.276;2023-03-11T01:30:05;98453.31;;;8.88;nan
46408;BME280;32110;45.724;21.276;2023-03-11T01:32:31;98429.16;;;8.81;nan
46408;BME280;32110;45.724;21.276;2023-03-11T01:34:56;98405.78;;;8.64;nan
46408;BME280;32110;45.724;21.276;2023-03-11T01:37:21;98438.34;;;8.78;nan
46408;BME280;32110;45.724;21.276;2023-03-11T01:39:47;98452.28;;;8.84;nan
46408;BME280;32110;45.724;21.276;2023-03-11T01:42:12;98452.00;;;8.80;nan
46408;BME280;32110;45.724;21.276;2023-03-11T01:44:38;98474.31;;;8.88;nan
46408;BME280;32110;45.724;21.276;2023-03-11T01:49:28;98468.81;;;8.79;nan
46408;BME280;32110;45.724;21.276;2023-03-11T01:51:56;98477.47;;;8.80;nan
46408;BME280;32110;45.724;21.276;2023-03-11T01:54:26;98474.31;;;8.78;nan
46408;BME280;32110;45.724;21.276;2023-03-11T01:56:53;98483.25;;;8.82;nan
46408;BME280;32110;45.724;21.276;2023-03-11T01:59:25;98469.06;;;8.72;nan
46408;BME280;32110;45.724;21.276;2023-03-11T02:02:54;98498.47;;;8.80;nan
46408;BME280;32110;45.724;21.276;2023-03-11T02:05:01;98487.44;;;8.72;nan
46408;BME280;32110;45.724;21.276;2023-03-11T02:07:27;98486.88;;;8.70;nan
46408;BME280;32110;45.724;21.276;2023-03-11T02:09:52;98501.34;;;8.78;nan
46408;BME280;32110;45.724;21.276;2023-03-11T02:12:18;98488.72;;;8.65;nan
46408;BME280;32110;45.724;21.276;2023-03-11T02:14:47;98500.78;;;8.71;nan
46408;BME280;32110;45.724;21.276;2023-03-11T02:17:13;98517.59;;;8.75;nan
46408;BME280;32110;45.724;21.276;2023-03-11T02:20:02;98518.66;;;8.74;nan
46408;BME280;32110;45.724;21.276;2023-03-11T02:22:33;98507.34;;;8.68;nan
46408;BME280;32110;45.724;21.276;2023-03-11T02:25:02;98513.66;;;8.72;nan
46408;BME280;32110;45.724;21.276;2023-03-11T02:27:32;98496.84;;;8.63;nan
46408;BME280;32110;45.724;21.276;2023-03-11T02:29:59;98476.84;;;8.47;nan
46408;BME280;32110;45.724;21.276;2023-03-11T02:32:25;98513.13;;;8.65;nan
46408;BME280;32110;45.724;21.276;2023-03-11T02:34:51;98507.09;;;8.65;nan
46408;BME280;32110;45.724;21.276;2023-03-11T02:37:17;98512.09;;;8.71;nan
46408;BME280;32110;45.724;21.276;2023-03-11T02:39:45;98512.09;;;8.71;nan
46408;BME280;32110;45.724;21.276;2023-03-11T02:42:25;98513.66;;;8.72;nan
46408;BME280;32110;45.724;21.276;2023-03-11T02:44:59;98500.25;;;8.64;nan
46408;BME280;32110;45.724;21.276;2023-03-11T02:47:26;98510.50;;;8.65;nan
46408;BME280;32110;45.724;21.276;2023-03-11T02:49:53;98517.84;;;8.68;nan
46408;BME280;32110;45.724;21.276;2023-03-11T02:52:19;98519.44;;;8.64;nan
46408;BME280;32110;45.724;21.276;2023-03-11T02:54:46;98510.50;;;8.65;nan
46408;BME280;32110;45.724;21.276;2023-03-11T02:57:11;98517.84;;;8.68;nan
46408;BME280;32110;45.724;21.276;2023-03-11T02:59:36;98504.16;;;8.56;nan
46408;BME280;32110;45.724;21.276;2023-03-11T03:02:02;98499.47;;;8.58;nan
46408;BME280;32110;45.724;21.276;2023-03-11T03:04:27;98517.84;;;8.68;nan
46408;BME280;32110;45.724;21.276;2023-03-11T03:06:53;98517.28;;;8.61;nan
46408;BME280;32110;45.724;21.276;2023-03-11T03:09:18;98518.91;;;8.67;nan
46408;BME280;32110;45.724;21.276;2023-03-11T03:11:43;98515.75;;;8.65;nan
46408;BME280;32110;45.724;21.276;2023-03-11T03:14:09;98522.06;;;8.64;nan
46408;BME280;32110;45.724;21.276;2023-03-11T03:16:34;98521.25;;;8.64;nan
46408;BME280;32110;45.724;21.276;2023-03-11T03:18:59;98523.84;;;8.59;nan
46408;BME280;32110;45.724;21.276;2023-03-11T03:21:25;98529.41;;;8.67;nan
46408;BME280;32110;45.724;21.276;2023-03-11T03:23:50;98527.31;;;8.64;nan
46408;BME280;32110;45.724;21.276;2023-03-11T03:26:15;98531.47;;;8.60;nan
46408;BME280;32110;45.724;21.276;2023-03-11T03:28:41;98498.13;;;8.45;nan
46408;BME280;32110;45.724;21.276;2023-03-11T03:31:08;98539.63;;;8.69;nan
46408;BME280;32110;45.724;21.276;2023-03-11T03:33:35;98547.50;;;8.69;nan
46408;BME280;32110;45.724;21.276;2023-03-11T03:36:05;98551.97;;;8.68;nan
46408;BME280;32110;45.724;21.276;2023-03-11T03:38:31;98540.91;;;8.61;nan
46408;BME280;32110;45.724;21.276;2023-03-11T03:40:57;98539.34;;;8.65;nan
46408;BME280;32110;45.724;21.276;2023-03-11T03:43:22;98544.06;;;8.63;nan
46408;BME280;32110;45.724;21.276;2023-03-11T03:45:59;98545.38;;;8.66;nan
46408;BME280;32110;45.724;21.276;2023-03-11T03:48:25;98537.50;;;8.61;nan
46408;BME280;32110;45.724;21.276;2023-03-11T03:50:51;98555.34;;;8.69;nan
46408;BME280;32110;45.724;21.276;2023-03-11T03:53:17;98563.78;;;8.71;nan
46408;BME280;32110;45.724;21.276;2023-03-11T03:55:42;98569.28;;;8.69;nan
46408;BME280;32110;45.724;21.276;2023-03-11T03:58:07;98551.69;;;8.60;nan
46408;BME280;32110;45.724;21.276;2023-03-11T04:00:33;98560.88;;;8.67;nan
46408;BME280;32110;45.724;21.276;2023-03-11T04:02:58;98533.00;;;8.46;nan
46408;BME280;32110;45.724;21.276;2023-03-11T04:05:24;98545.63;;;8.59;nan
46408;BME280;32110;45.724;21.276;2023-03-11T04:07:51;98555.63;;;8.62;nan
46408;BME280;32110;45.724;21.276;2023-03-11T04:10:17;98533.75;;;8.41;nan
46408;BME280;32110;45.724;21.276;2023-03-11T04:12:42;98566.66;;;8.64;nan
46408;BME280;32110;45.724;21.276;2023-03-11T04:15:08;98571.38;;;8.67;nan
46408;BME280;32110;45.724;21.276;2023-03-11T04:17:33;98564.28;;;8.63;nan
46408;BME280;32110;45.724;21.276;2023-03-11T04:19:59;98574.53;;;8.64;nan
46408;BME280;32110;45.724;21.276;2023-03-11T04:22:24;98582.41;;;8.69;nan
46408;BME280;32110;45.724;21.276;2023-03-11T04:24:50;98570.53;;;8.57;nan
46408;BME280;32110;45.724;21.276;2023-03-11T04:27:15;98576.06;;;8.55;nan
46408;BME280;32110;45.724;21.276;2023-03-11T04:29:40;98592.38;;;8.67;nan
46408;BME280;32110;45.724;21.276;2023-03-11T04:32:06;98578.16;;;8.58;nan
46408;BME280;32110;45.724;21.276;2023-03-11T04:34:31;98582.34;;;8.59;nan
46408;BME280;32110;45.724;21.276;2023-03-11T04:36:57;98555.53;;;8.42;nan
46408;BME280;32110;45.724;21.276;2023-03-11T04:39:22;98582.88;;;8.61;nan
46408;BME280;32110;45.724;21.276;2023-03-11T04:41:48;98583.94;;;8.60;nan
46408;BME280;32110;45.724;21.276;2023-03-11T04:44:13;98591.81;;;8.60;nan
46408;BME280;32110;45.724;21.276;2023-03-11T04:46:38;98580.53;;;8.60;nan
46408;BME280;32110;45.724;21.276;2023-03-11T04:49:04;98569.22;;;8.54;nan
46408;BME280;32110;45.724;21.276;2023-03-11T04:51:29;98574.47;;;8.59;nan
46408;BME280;32110;45.724;21.276;2023-03-11T04:53:55;98575.81;;;8.62;nan
46408;BME280;32110;45.724;21.276;2023-03-11T04:56:20;98600.75;;;8.64;nan
46408;BME280;32110;45.724;21.276;2023-03-11T04:58:46;98601.78;;;8.63;nan
46408;BME280;32110;45.724;21.276;2023-03-11T05:01:11;98611.50;;;8.63;nan
46408;BME280;32110;45.724;21.276;2023-03-11T05:03:36;98601.53;;;8.60;nan
46408;BME280;32110;45.724;21.276;2023-03-11T05:06:02;98627.50;;;8.61;nan
46408;BME280;32110;45.724;21.276;2023-03-11T05:08:28;98622.22;;;8.56;nan
46408;BME280;32110;45.724;21.276;2023-03-11T05:10:53;98615.41;;;8.55;nan
46408;BME280;32110;45.724;21.276;2023-03-11T05:13:19;98615.41;;;8.55;nan
46408;BME280;32110;45.724;21.276;2023-03-11T05:15:45;98630.13;;;8.61;nan
46408;BME280;32110;45.724;21.276;2023-03-11T05:18:11;98605.16;;;8.48;nan
46408;BME280;32110;45.724;21.276;2023-03-11T05:20:37;98617.00;;;8.61;nan
46408;BME280;32110;45.724;21.276;2023-03-11T05:23:03;98602.00;;;8.51;nan
46408;BME280;32110;45.724;21.276;2023-03-11T05:25:28;98596.25;;;8.55;nan
46408;BME280;32110;45.724;21.276;2023-03-11T05:27:54;98599.41;;;8.57;nan
46408;BME280;32110;45.724;21.276;2023-03-11T05:30:19;98608.09;;;8.57;nan
46408;BME280;32110;45.724;21.276;2023-03-11T05:32:44;98600.72;;;8.59;nan
46408;BME280;32110;45.724;21.276;2023-03-11T05:35:10;98598.09;;;8.59;nan
46408;BME280;32110;45.724;21.276;2023-03-11T05:37:35;98559.38;;;8.29;nan
46408;BME280;32110;45.724;21.276;2023-03-11T05:40:04;98616.00;;;8.67;nan
46408;BME280;32110;45.724;21.276;2023-03-11T05:42:31;98603.34;;;8.59;nan
46408;BME280;32110;45.724;21.276;2023-03-11T05:44:57;98605.19;;;8.64;nan
46408;BME280;32110;45.724;21.276;2023-03-11T05:47:22;98590.47;;;8.52;nan
46408;BME280;32110;45.724;21.276;2023-03-11T05:49:48;98612.03;;;8.65;nan
46408;BME280;32110;45.724;21.276;2023-03-11T05:52:13;98612.28;;;8.63;nan
46408;BME280;32110;45.724;21.276;2023-03-11T05:54:39;98629.56;;;8.59;nan
46408;BME280;32110;45.724;21.276;2023-03-11T05:57:04;98621.16;;;8.52;nan
46408;BME280;32110;45.724;21.276;2023-03-11T05:59:30;98628.53;;;8.55;nan
46408;BME280;32110;45.724;21.276;2023-03-11T06:01:57;98650.56;;;8.59;nan
46408;BME280;32110;45.724;21.276;2023-03-11T06:04:22;98647.34;;;8.47;nan
46408;BME280;32110;45.724;21.276;2023-03-11T06:06:48;98643.72;;;8.48;nan
46408;BME280;32110;45.724;21.276;2023-03-11T06:09:14;98642.88;;;8.42;nan
46408;BME280;32110;45.724;21.276;2023-03-11T06:11:40;98661.31;;;8.52;nan
46408;BME280;32110;45.724;21.276;2023-03-11T06:14:06;98667.06;;;8.55;nan
46408;BME280;32110;45.724;21.276;2023-03-11T06:16:31;98663.69;;;8.59;nan
46408;BME280;32110;45.724;21.276;2023-03-11T06:18:57;98669.47;;;8.61;nan
46408;BME280;32110;45.724;21.276;2023-03-11T06:21:25;98672.41;;;8.70;nan
46408;BME280;32110;45.724;21.276;2023-03-11T06:23:51;98679.53;;;8.80;nan
46408;BME280;32110;45.724;21.276;2023-03-11T06:26:18;98663.56;;;8.81;nan
46408;BME280;32110;45.724;21.276;2023-03-11T06:28:45;98660.69;;;8.93;nan
46408;BME280;32110;45.724;21.276;2023-03-11T06:31:14;98669.88;;;8.90;nan
46408;BME280;32110;45.724;21.276;2023-03-11T06:33:41;98681.75;;;9.03;nan
46408;BME280;32110;45.724;21.276;2023-03-11T06:36:07;98703.81;;;9.07;nan
46408;BME280;32110;45.724;21.276;2023-03-11T06:38:33;98692.28;;;9.08;nan
46408;BME280;32110;45.724;21.276;2023-03-11T06:41:00;98690.97;;;9.16;nan
46408;BME280;32110;45.724;21.276;2023-03-11T06:43:26;98703.09;;;9.17;nan
46408;BME280;32110;45.724;21.276;2023-03-11T06:45:52;98703.59;;;9.19;nan
46408;BME280;32110;45.724;21.276;2023-03-11T06:48:17;98703.63;;;9.24;nan
46408;BME280;32110;45.724;21.276;2023-03-11T06:50:43;98715.72;;;9.30;nan
46408;BME280;32110;45.724;21.276;2023-03-11T06:53:08;98701.28;;;9.33;nan
46408;BME280;32110;45.724;21.276;2023-03-11T06:55:34;98692.09;;;9.30;nan
46408;BME280;32110;45.724;21.276;2023-03-11T06:57:59;98707.09;;;9.40;nan
46408;BME280;32110;45.724;21.276;2023-03-11T07:00:25;98703.94;;;9.43;nan
46408;BME280;32110;45.724;21.276;2023-03-11T07:02:50;98725.00;;;9.53;nan
46408;BME280;32110;45.724;21.276;2023-03-11T07:05:16;98715.25;;;9.49;nan
46408;BME280;32110;45.724;21.276;2023-03-11T07:07:42;98740.78;;;9.58;nan
46408;BME280;32110;45.724;21.276;2023-03-11T07:10:08;98744.41;;;9.52;nan
46408;BME280;32110;45.724;21.276;2023-03-11T07:12:33;98758.91;;;9.60;nan
46408;BME280;32110;45.724;21.276;2023-03-11T07:14:59;98759.72;;;9.61;nan
46408;BME280;32110;45.724;21.276;2023-03-11T07:17:25;98758.09;;;9.59;nan
46408;BME280;32110;45.724;21.276;2023-03-11T07:19:51;98758.63;;;9.56;nan
46408;BME280;32110;45.724;21.276;2023-03-11T07:22:17;98770.19;;;9.55;nan
46408;BME280;32110;45.724;21.276;2023-03-11T07:24:47;98785.94;;;9.50;nan
46408;BME280;32110;45.724;21.276;2023-03-11T07:27:13;98769.09;;;9.41;nan
46408;BME280;32110;45.724;21.276;2023-03-11T07:29:38;98781.56;;;9.13;nan
46408;BME280;32110;45.724;21.276;2023-03-11T07:32:06;98823.53;;;9.03;nan
46408;BME280;32110;45.724;21.276;2023-03-11T07:34:31;98813.19;;;8.86;nan
46408;BME280;32110;45.724;21.276;2023-03-11T07:36:56;98820.69;;;8.72;nan
46408;BME280;32110;45.724;21.276;2023-03-11T07:39:22;98835.63;;;8.67;nan
46408;BME280;32110;45.724;21.276;2023-03-11T07:41:47;98841.00;;;8.50;nan
46408;BME280;32110;45.724;21.276;2023-03-11T07:44:14;98834.66;;;8.46;nan
46408;BME280;32110;45.724;21.276;2023-03-11T07:46:40;98832.91;;;8.29;nan
46408;BME280;32110;45.724;21.276;2023-03-11T07:49:05;98875.69;;;8.35;nan
46408;BME280;32110;45.724;21.276;2023-03-11T07:51:33;98851.03;;;8.09;nan
46408;BME280;32110;45.724;21.276;2023-03-11T07:53:59;98881.97;;;8.07;nan
46408;BME280;32110;45.724;21.276;2023-03-11T07:56:28;98839.63;;;7.71;nan
46408;BME280;32110;45.724;21.276;2023-03-11T07:58:54;98848.34;;;7.55;nan
46408;BME280;32110;45.724;21.276;2023-03-11T08:01:22;98867.03;;;7.63;nan
46408;BME280;32110;45.724;21.276;2023-03-11T08:03:49;98892.69;;;7.61;nan
46408;BME280;32110;45.724;21.276;2023-03-11T08:06:19;98901.75;;;7.54;nan
46408;BME280;32110;45.724;21.276;2023-03-11T08:08:46;98910.50;;;7.42;nan
46408;BME280;32110;45.724;21.276;2023-03-11T08:11:12;98901.78;;;7.37;nan
46408;BME280;32110;45.724;21.276;2023-03-11T08:13:43;98895.13;;;7.29;nan
46408;BME280;32110;45.724;21.276;2023-03-11T08:16:10;98894.66;;;7.15;nan
46408;BME280;32110;45.724;21.276;2023-03-11T08:18:36;98889.84;;;7.07;nan
46408;BME280;32110;45.724;21.276;2023-03-11T08:21:11;98914.59;;;7.16;nan
46408;BME280;32110;45.724;21.276;2023-03-11T08:23:37;98908.16;;;7.07;nan
46408;BME280;32110;45.724;21.276;2023-03-11T08:26:07;98918.63;;;7.07;nan
46408;BME280;32110;45.724;21.276;2023-03-11T08:28:32;98900.94;;;6.97;nan
46408;BME280;32110;45.724;21.276;2023-03-11T08:30:58;98923.53;;;7.03;nan
46408;BME280;32110;45.724;21.276;2023-03-11T08:33:24;98920.53;;;6.95;nan
46408;BME280;32110;45.724;21.276;2023-03-11T08:35:49;98941.53;;;7.00;nan
46408;BME280;32110;45.724;21.276;2023-03-11T08:38:15;98925.69;;;6.90;nan
46408;BME280;32110;45.724;21.276;2023-03-11T08:40:40;98917.41;;;6.81;nan
46408;BME280;32110;45.724;21.276;2023-03-11T08:43:05;98935.34;;;6.89;nan
46408;BME280;32110;45.724;21.276;2023-03-11T08:45:32;98959.69;;;6.90;nan
46408;BME280;32110;45.724;21.276;2023-03-11T08:47:57;98938.81;;;6.78;nan
46408;BME280;32110;45.724;21.276;2023-03-11T08:50:23;98922.69;;;6.52;nan
46408;BME280;32110;45.724;21.276;2023-03-11T08:52:48;98976.38;;;6.72;nan
46408;BME280;32110;45.724;21.276;2023-03-11T08:55:16;98928.69;;;6.24;nan
46408;BME280;32110;45.724;21.276;2023-03-11T08:57:43;98969.94;;;6.22;nan
46408;BME280;32110;45.724;21.276;2023-03-11T09:00:10;98987.13;;;6.18;nan
46408;BME280;32110;45.724;21.276;2023-03-11T09:02:36;98952.41;;;5.94;nan
46408;BME280;32110;45.724;21.276;2023-03-11T09:05:01;98998.63;;;6.05;nan
46408;BME280;32110;45.724;21.276;2023-03-11T09:07:27;98987.50;;;5.98;nan
46408;BME280;32110;45.724;21.276;2023-03-11T09:09:52;98989.88;;;5.88;nan
46408;BME280;32110;45.724;21.276;2023-03-11T09:12:19;99001.22;;;5.93;nan
46408;BME280;32110;45.724;21.276;2023-03-11T09:14:44;99000.31;;;5.88;nan
46408;BME280;32110;45.724;21.276;2023-03-11T09:17:10;98968.19;;;5.75;nan
46408;BME280;32110;45.724;21.276;2023-03-11T09:19:36;99004.00;;;5.99;nan
46408;BME280;32110;45.724;21.276;2023-03-11T09:22:02;99005.09;;;6.03;nan
46408;BME280;32110;45.724;21.276;2023-03-11T09:24:28;99001.56;;;5.85;nan
46408;BME280;32110;45.724;21.276;2023-03-11T09:26:54;99013.16;;;5.89;nan
46408;BME280;32110;45.724;21.276;2023-03-11T09:29:19;99020.66;;;5.97;nan
46408;BME280;32110;45.724;21.276;2023-03-11T09:31:45;98997.38;;;5.84;nan
46408;BME280;32110;45.724;21.276;2023-03-11T09:34:11;99035.56;;;5.97;nan
46408;BME280;32110;45.724;21.276;2023-03-11T09:36:39;99022.34;;;5.80;nan
46408;BME280;32110;45.724;21.276;2023-03-11T09:39:05;99027.59;;;5.80;nan
46408;BME280;32110;45.724;21.276;2023-03-11T09:41:36;99035.41;;;5.92;nan
46408;BME280;32110;45.724;21.276;2023-03-11T09:44:36;99026.25;;;6.01;nan
46408;BME280;32110;45.724;21.276;2023-03-11T09:50:05;99016.34;;;6.03;nan
46408;BME280;32110;45.724;21.276;2023-03-11T09:55:04;99007.97;;;6.01;nan
46408;BME280;32110;45.724;21.276;2023-03-11T09:57:35;99019.53;;;6.05;nan
46408;BME280;32110;45.724;21.276;2023-03-11T10:00:03;99027.47;;;6.10;nan
46408;BME280;32110;45.724;21.276;2023-03-11T10:02:30;99048.94;;;6.12;nan
46408;BME280;32110;45.724;21.276;2023-03-11T10:05:08;99051.13;;;6.15;nan
46408;BME280;32110;45.724;21.276;2023-03-11T10:07:39;99049.19;;;6.23;nan
46408;BME280;32110;45.724;21.276;2023-03-11T10:10:07;99016.69;;;6.18;nan
46408;BME280;32110;45.724;21.276;2023-03-11T10:12:51;99026.53;;;6.28;nan
46408;BME280;32110;45.724;21.276;2023-03-11T10:15:34;99021.41;;;6.33;nan
46408;BME280;32110;45.724;21.276;2023-03-11T10:21:22;99008.38;;;6.22;nan
46408;BME280;32110;45.724;21.276;2023-03-11T10:26:50;98985.06;;;6.20;nan
46408;BME280;32110;45.724;21.276;2023-03-11T10:29:28;98992.00;;;6.26;nan
46408;BME280;32110;45.724;21.276;2023-03-11T10:32:26;99018.75;;;6.57;nan
46408;BME280;32110;45.724;21.276;2023-03-11T10:34:54;99007.72;;;6.55;nan
46408;BME280;32110;45.724;21.276;2023-03-11T10:37:34;99035.78;;;6.59;nan
46408;BME280;32110;45.724;21.276;2023-03-11T10:40:16;99031.38;;;6.48;nan
46408;BME280;32110;45.724;21.276;2023-03-11T10:42:44;99043.63;;;6.59;nan
46408;BME280;32110;45.724;21.276;2023-03-11T10:45:14;99054.00;;;6.54;nan
46408;BME280;32110;45.724;21.276;2023-03-11T10:47:39;99044.47;;;6.48;nan
46408;BME280;32110;45.724;21.276;2023-03-11T10:50:05;99045.97;;;6.44;nan
46408;BME280;32110;45.724;21.276;2023-03-11T10:52:30;99045.97;;;6.44;nan
46408;BME280;32110;45.724;21.276;2023-03-11T10:55:00;99058.22;;;6.44;nan
46408;BME280;32110;45.724;21.276;2023-03-11T10:57:35;99047.19;;;6.42;nan
46408;BME280;32110;45.724;21.276;2023-03-11T11:00:06;99041.19;;;6.41;nan
46408;BME280;32110;45.724;21.276;2023-03-11T11:02:52;99070.59;;;6.48;nan
46408;BME280;32110;45.724;21.276;2023-03-11T11:05:30;99072.53;;;6.53;nan
46408;BME280;32110;45.724;21.276;2023-03-11T11:08:07;99067.56;;;6.51;nan
46408;BME280;32110;45.724;21.276;2023-03-11T11:10:35;99064.38;;;6.49;nan
46408;BME280;32110;45.724;21.276;2023-03-11T11:13:16;99061.50;;;6.51;nan
46408;BME280;32110;45.724;21.276;2023-03-11T11:18:22;99058.88;;;6.51;nan
46408;BME280;32110;45.724;21.276;2023-03-11T11:26:04;99080.72;;;6.56;nan
46408;BME280;32110;45.724;21.276;2023-03-11T11:28:31;99088.19;;;6.65;nan
46408;BME280;32110;45.724;21.276;2023-03-11T11:31:04;99080.25;;;6.59;nan
46408;BME280;32110;45.724;21.276;2023-03-11T11:33:31;99071.25;;;6.67;nan
46408;BME280;32110;45.724;21.276;2023-03-11T11:36:00;99068.28;;;6.75;nan
46408;BME280;32110;45.724;21.276;2023-03-11T11:38:27;99055.66;;;6.72;nan
46408;BME280;32110;45.724;21.276;2023-03-11T11:40:55;99077.72;;;6.76;nan
46408;BME280;32110;45.724;21.276;2023-03-11T11:44:09;99075.44;;;6.80;nan
46408;BME280;32110;45.724;21.276;2023-03-11T11:46:24;99054.25;;;6.81;nan
46408;BME280;32110;45.724;21.276;2023-03-11T11:49:04;99055.75;;;6.77;nan
46408;BME280;32110;45.724;21.276;2023-03-11T11:51:35;99078.38;;;6.84;nan
46408;BME280;32110;45.724;21.276;2023-03-11T11:54:17;99076.44;;;6.79;nan
46408;BME280;32110;45.724;21.276;2023-03-11T11:56:49;99047.47;;;6.69;nan
46408;BME280;32110;45.724;21.276;2023-03-11T11:59:19;99061.34;;;6.69;nan
46408;BME280;32110;45.724;21.276;2023-03-11T12:12:39;99082.66;;;6.61;nan
46408;BME280;32110;45.724;21.276;2023-03-11T12:15:25;99083.09;;;6.58;nan
46408;BME280;32110;45.724;21.276;2023-03-11T12:17:55;99061.19;;;6.47;nan
46408;BME280;32110;45.724;21.276;2023-03-11T12:20:39;99067.78;;;6.50;nan
46408;BME280;32110;45.724;21.276;2023-03-11T12:23:46;99071.06;;;6.45;nan
46408;BME280;32110;45.724;21.276;2023-03-11T12:26:21;99066.41;;;6.47;nan
46408;BME280;32110;45.724;21.276;2023-03-11T12:28:57;99075.41;;;6.51;nan
46408;BME280;32110;45.724;21.276;2023-03-11T12:31:24;99068.25;;;6.47;nan
46408;BME280;32110;45.724;21.276;2023-03-11T12:33:59;99091.41;;;6.55;nan
46408;BME280;32110;45.724;21.276;2023-03-11T12:36:31;99102.22;;;6.58;nan
46408;BME280;32110;45.724;21.276;2023-03-11T12:38:59;99072.22;;;6.49;nan
46408;BME280;32110;45.724;21.276;2023-03-11T12:44:32;99101.41;;;6.46;nan
46408;BME280;32110;45.724;21.276;2023-03-11T12:47:01;99119.84;;;6.51;nan
46408;BME280;32110;45.724;21.276;2023-03-11T12:49:39;99115.06;;;6.48;nan
46408;BME280;32110;45.724;21.276;2023-03-11T12:54:35;99104.47;;;6.55;nan
46408;BME280;32110;45.724;21.276;2023-03-11T12:57:12;99088.47;;;6.51;nan
46408;BME280;32110;45.724;21.276;2023-03-11T13:03:22;99096.06;;;6.53;nan
46408;BME280;32110;45.724;21.276;2023-03-11T13:08:55;99114.38;;;6.53;nan
46408;BME280;32110;45.724;21.276;2023-03-11T13:11:35;99109.25;;;6.58;nan
46408;BME280;32110;45.724;21.276;2023-03-11T13:14:34;99105.16;;;6.62;nan
46408;BME280;32110;45.724;21.276;2023-03-11T13:17:22;99103.78;;;6.59;nan
46408;BME280;32110;45.724;21.276;2023-03-11T13:19:53;99117.19;;;6.63;nan
46408;BME280;32110;45.724;21.276;2023-03-11T13:22:40;99103.34;;;6.51;nan
46408;BME280;32110;45.724;21.276;2023-03-11T13:25:34;99126.53;;;6.59;nan
46408;BME280;32110;45.724;21.276;2023-03-11T13:28:15;99128.72;;;6.50;nan
46408;BME280;32110;45.724;21.276;2023-03-11T13:33:51;99142.25;;;6.59;nan
46408;BME280;32110;45.724;21.276;2023-03-11T13:36:38;99128.81;;;6.55;nan
46408;BME280;32110;45.724;21.276;2023-03-11T13:39:23;99135.28;;;6.65;nan
46408;BME280;32110;45.724;21.276;2023-03-11T13:41:53;99115.97;;;6.66;nan
46408;BME280;32110;45.724;21.276;2023-03-11T13:44:25;99131.88;;;6.64;nan
46408;BME280;32110;45.724;21.276;2023-03-11T13:47:12;99132.56;;;6.59;nan
46408;BME280;32110;45.724;21.276;2023-03-11T13:49:47;99128.38;;;6.58;nan
46408;BME280;32110;45.724;21.276;2023-03-11T13:52:33;99130.41;;;6.56;nan
46408;BME280;32110;45.724;21.276;2023-03-11T13:57:49;99123.91;;;6.71;nan
46408;BME280;32110;45.724;21.276;2023-03-11T14:00:17;99119.94;;;6.68;nan
46408;BME280;32110;45.724;21.276;2023-03-11T14:02:57;99133.91;;;6.74;nan
46408;BME280;32110;45.724;21.276;2023-03-11T14:05:34;99131.88;;;6.76;nan
46408;BME280;32110;45.724;21.276;2023-03-11T14:08:27;99132.19;;;6.79;nan
46408;BME280;32110;45.724;21.276;2023-03-11T14:13:21;99124.34;;;6.79;nan
46408;BME280;32110;45.724;21.276;2023-03-11T14:15:51;99141.84;;;6.91;nan
46408;BME280;32110;45.724;21.276;2023-03-11T14:18:32;99142.63;;;6.91;nan
46408;BME280;32110;45.724;21.276;2023-03-11T14:20:59;99139.09;;;6.97;nan
46408;BME280;32110;45.724;21.276;2023-03-11T14:23:41;99149.09;;;7.00;nan
46408;BME280;32110;45.724;21.276;2023-03-11T14:26:16;99144.31;;;6.97;nan